Logo Brunsvigian Airlines

Die löwenstarke Airline aus Braunschweig

Charts auf der Seite von VATEUD

EDDG 042320Z 33004KT CAVOK 18/13 Q1017 NOSIG

flugnummerleerzeichenankunftleerzeichenplanmaessig
ABS501__PADERBORN________07doppelpunkt45
ABS105__BRAUNSCHWEIG_____13doppelpunkt20
ABS505__BRAUNSCHWEIG_____16doppelpunkt40

flugnummerleerzeichenankunftleerzeichenplanmaessig
ABS500__BRAUNSCHWEIG_____07doppelpunkt20
ABS104__BRAUNSCHWEIG_____12doppelpunkt55
ABS504__PADERBORN________16doppelpunkt15

Der Flughafen Münster-Osnabrück liegt im Herzen des Münsterlandes.

Kontakt   Impressum

Valid HTML 4.01 Transitional CSS ist valide!